createdAt,value
2019-01-23T00:04:24.012Z,79.97
2019-01-23T00:07:12.045Z,69.75
2019-01-23T00:09:53.222Z,74.27
2019-01-23T00:12:41.262Z,74.50
2019-01-23T00:15:22.556Z,69.75
2019-01-23T00:18:10.609Z,89.32
2019-01-23T00:20:52.315Z,61.92
2019-01-23T00:23:40.384Z,74.10
2019-01-23T00:26:21.748Z,72.00
2019-01-23T00:29:03.470Z,64.25
2019-01-23T00:31:51.565Z,75.65
2019-01-23T00:34:33.231Z,79.65
2019-01-23T00:37:21.221Z,68.75
2019-01-23T00:40:29.909Z,81.25
2019-01-23T00:43:11.511Z,68.50
2019-01-23T00:45:53.635Z,68.97
2019-01-23T00:48:41.668Z,73.80
2019-01-23T00:51:23.784Z,70.57
2019-01-23T00:54:12.087Z,73.37
2019-01-23T00:56:53.388Z,70.08
2019-01-23T00:59:41.420Z,71.65
2019-01-23T01:02:22.628Z,72.85
2019-01-23T01:04:51.450Z,72.90
2019-01-23T01:07:39.649Z,66.37
2019-01-23T01:10:27.625Z,69.80
2019-01-23T01:13:08.739Z,60.55
2019-01-23T01:15:56.682Z,69.70
2019-01-23T01:18:37.958Z,72.30
2019-01-23T01:21:25.960Z,66.57
2019-01-23T01:24:14.009Z,65.67
2019-01-23T01:26:56.102Z,66.92
2019-01-23T01:29:24.980Z,63.13
2019-01-23T01:32:12.897Z,72.60
2019-01-23T01:35:00.936Z,65.87
2019-01-23T01:37:48.923Z,67.12
2019-01-23T01:40:31.331Z,64.55
2019-01-23T01:43:19.365Z,64.60
2019-01-23T01:46:01.115Z,70.00
2019-01-23T01:48:49.057Z,65.85
2019-01-23T01:51:30.751Z,75.97
2019-01-23T01:54:18.806Z,79.22
2019-01-23T01:57:00.053Z,71.75
2019-01-23T01:59:48.019Z,76.92
2019-01-23T02:02:29.328Z,66.92
2019-01-23T02:05:17.659Z,76.00
2019-01-23T02:07:59.292Z,77.22
2019-01-23T02:10:47.305Z,75.47
2019-01-23T02:13:28.828Z,62.93
2019-01-23T02:16:21.221Z,74.58
2019-01-23T02:19:04.897Z,65.95
2019-01-23T02:21:53.081Z,70.35
2019-01-23T02:24:22.040Z,68.37
2019-01-23T02:27:24.073Z,76.15
2019-01-23T02:30:31.598Z,71.82
2019-01-23T02:33:12.980Z,82.80
2019-01-23T02:35:41.937Z,92.42
2019-01-23T02:38:30.088Z,73.72
2019-01-23T02:41:18.414Z,73.37
2019-01-23T02:43:48.254Z,75.75
2019-01-23T02:46:17.232Z,73.47
2019-01-23T02:48:46.166Z,76.15
2019-01-23T02:51:34.251Z,74.10
2019-01-23T02:57:25.017Z,87.02
2019-01-23T03:00:32.499Z,66.47
2019-01-23T03:03:14.456Z,80.65
2019-01-23T03:06:02.491Z,72.80
2019-01-23T03:08:50.559Z,71.22
2019-01-23T03:11:38.604Z,79.77
2019-01-23T03:14:20.051Z,83.27
2019-01-23T03:17:08.105Z,69.82
2019-01-23T03:19:49.736Z,74.47
2019-01-23T03:25:38.539Z,72.17
2019-01-23T03:28:26.516Z,82.47
2019-01-23T03:31:08.315Z,79.92
2019-01-23T03:33:37.009Z,76.55
2019-01-23T03:36:25.004Z,81.55
2019-01-23T03:39:13.051Z,73.62
2019-01-23T03:41:54.267Z,80.22
2019-01-23T03:44:42.298Z,80.25
2019-01-23T03:47:24.161Z,70.17
2019-01-23T03:50:32.869Z,84.97
2019-01-23T03:53:14.915Z,68.12
2019-01-23T03:56:02.940Z,76.90
2019-01-23T03:58:44.940Z,76.00
2019-01-23T04:01:32.977Z,71.75
2019-01-23T04:04:15.036Z,73.50
2019-01-23T04:09:57.312Z,76.67
2019-01-23T04:12:45.366Z,80.62
2019-01-23T04:15:27.025Z,78.72
2019-01-23T04:18:15.049Z,77.80
2019-01-23T04:20:56.893Z,73.78
2019-01-23T04:23:44.941Z,74.35
2019-01-23T04:26:26.492Z,75.70
2019-01-23T04:29:08.523Z,77.87
2019-01-23T04:31:56.448Z,73.20
2019-01-23T04:34:38.357Z,70.32
2019-01-23T04:37:26.350Z,74.42
2019-01-23T04:40:12.401Z,73.17
2019-01-23T04:43:00.370Z,82.80
2019-01-23T04:45:42.396Z,75.87
2019-01-23T04:48:24.160Z,80.12
2019-01-23T04:54:14.130Z,76.77
2019-01-23T04:57:02.136Z,81.42
2019-01-23T04:59:46.929Z,78.95
2019-01-23T05:02:34.065Z,78.05
2019-01-23T05:05:15.875Z,77.40
2019-01-23T05:07:44.604Z,79.77
2019-01-23T05:10:32.680Z,66.42
2019-01-23T05:13:14.873Z,82.53
2019-01-23T05:16:02.877Z,77.80
2019-01-23T05:18:44.779Z,84.42
2019-01-23T05:24:33.359Z,86.70
2019-01-23T05:27:21.320Z,89.10
2019-01-23T05:30:03.690Z,77.10
2019-01-23T05:32:51.623Z,84.83
2019-01-23T05:35:33.511Z,81.65
2019-01-23T05:38:21.423Z,63.28
2019-01-23T05:41:03.373Z,79.35
2019-01-23T05:43:51.367Z,86.53
2019-01-23T05:46:33.355Z,81.22
2019-01-23T05:49:21.349Z,83.67
2019-01-23T05:52:03.241Z,78.42
2019-01-23T05:54:51.207Z,83.87
2019-01-23T05:57:32.993Z,87.85
2019-01-23T06:03:16.884Z,88.42
2019-01-23T06:06:04.883Z,83.65
2019-01-23T06:08:46.063Z,86.30
2019-01-23T06:11:34.120Z,84.22
2019-01-23T06:14:15.473Z,95.40
2019-01-23T06:17:03.515Z,80.20
2019-01-23T06:19:44.648Z,85.97
2019-01-23T06:22:32.792Z,84.92
2019-01-23T06:25:14.756Z,94.58
2019-01-23T06:28:02.813Z,79.15
2019-01-23T06:30:44.748Z,101.18
2019-01-23T06:33:32.829Z,99.83
2019-01-23T06:36:14.105Z,105.07
2019-01-23T06:39:02.083Z,86.47
2019-01-23T06:41:43.693Z,100.47
2019-01-23T06:44:31.836Z,101.72
2019-01-23T06:47:13.057Z,97.20
2019-01-23T06:50:01.034Z,107.47
2019-01-23T06:52:42.625Z,93.12
2019-01-23T06:55:30.680Z,93.60
2019-01-23T06:58:12.632Z,98.40
2019-01-23T07:01:00.597Z,102.25
2019-01-23T07:06:49.324Z,85.72
2019-01-23T07:09:30.370Z,101.67
2019-01-23T07:12:18.404Z,85.28
2019-01-23T07:15:00.301Z,97.85
2019-01-23T07:17:48.355Z,101.62
2019-01-23T07:20:30.090Z,81.63
2019-01-23T07:23:18.036Z,86.78
2019-01-23T07:26:00.609Z,94.07
2019-01-23T07:28:29.289Z,91.40
2019-01-23T07:31:18.801Z,102.25
2019-01-23T07:33:59.985Z,80.25
2019-01-23T07:36:48.070Z,82.92
2019-01-23T07:39:30.084Z,86.63
2019-01-23T07:42:18.171Z,94.90
2019-01-23T07:45:00.249Z,90.20
2019-01-23T07:47:42.013Z,93.75
2019-01-23T07:50:32.050Z,93.65
2019-01-23T07:53:13.766Z,98.25
2019-01-23T07:56:01.825Z,84.52
2019-01-23T07:58:43.302Z,93.95
2019-01-23T08:01:31.945Z,97.75
2019-01-23T08:04:13.742Z,93.55
2019-01-23T08:07:01.821Z,88.47
2019-01-23T08:09:42.961Z,74.67
2019-01-23T08:12:30.953Z,82.60
2019-01-23T08:15:18.482Z,81.72
2019-01-23T08:18:08.372Z,96.97
2019-01-23T08:20:50.013Z,84.97
2019-01-23T08:23:38.080Z,84.32
2019-01-23T08:26:19.452Z,85.62
2019-01-23T08:29:07.441Z,94.37
2019-01-23T08:31:49.417Z,90.38
2019-01-23T08:34:37.405Z,78.00
2019-01-23T08:37:19.541Z,99.42
2019-01-23T08:40:22.081Z,76.90
2019-01-23T08:43:10.139Z,88.05
2019-01-23T08:45:51.770Z,84.92
2019-01-23T08:48:33.468Z,87.50
2019-01-23T08:51:21.975Z,78.67
2019-01-23T08:54:04.182Z,83.67
2019-01-23T08:56:53.161Z,82.00
2019-01-23T08:59:39.590Z,73.78
2019-01-23T09:02:47.552Z,89.00
2019-01-23T09:05:16.482Z,84.60
2019-01-23T09:08:04.624Z,80.20
2019-01-23T09:10:46.287Z,102.40
2019-01-23T09:13:34.367Z,90.70
2019-01-23T09:16:15.491Z,82.47
2019-01-23T09:19:03.851Z,88.27
2019-01-23T09:21:45.773Z,100.85
2019-01-23T09:24:34.392Z,91.22
2019-01-23T09:27:15.653Z,90.42
2019-01-23T09:30:18.013Z,87.50
2019-01-23T09:33:27.225Z,88.45
2019-01-23T09:36:11.204Z,95.22
2019-01-23T09:39:18.441Z,94.67
2019-01-23T09:42:25.742Z,90.83
2019-01-23T09:45:26.774Z,100.58
2019-01-23T09:48:09.397Z,83.52
2019-01-23T09:51:18.130Z,87.97
2019-01-23T09:54:02.106Z,87.70
2019-01-23T09:56:50.439Z,84.77
2019-01-23T09:59:31.737Z,85.97
2019-01-23T10:02:19.852Z,85.00
2019-01-23T10:04:48.569Z,96.82
2019-01-23T10:07:36.757Z,84.97
2019-01-23T10:10:24.899Z,92.92
2019-01-23T10:13:06.149Z,75.90
2019-01-23T10:15:54.135Z,77.15
2019-01-23T10:18:35.804Z,81.87
2019-01-23T10:21:23.792Z,82.15
2019-01-23T10:24:05.044Z,76.55
2019-01-23T10:26:53.052Z,83.85
2019-01-23T10:29:34.568Z,91.63
2019-01-23T10:32:03.298Z,87.25
2019-01-23T10:34:51.303Z,86.22
2019-01-23T10:37:33.353Z,87.17
2019-01-23T10:40:21.531Z,84.55
2019-01-23T10:43:03.936Z,88.65
2019-01-23T10:45:52.039Z,77.95
2019-01-23T10:48:37.931Z,87.35
2019-01-23T10:51:16.706Z,93.95
2019-01-23T10:53:45.412Z,88.97
2019-01-23T10:56:33.927Z,96.95
2019-01-23T10:59:02.676Z,91.92
2019-01-23T11:01:31.393Z,91.72
2019-01-23T11:04:00.291Z,80.65
2019-01-23T11:06:48.546Z,76.22
2019-01-23T11:09:33.057Z,89.30
2019-01-23T11:12:21.694Z,81.50
2019-01-23T11:15:04.055Z,88.20
2019-01-23T11:17:52.602Z,80.80
2019-01-23T11:20:34.869Z,86.95
2019-01-23T11:23:22.871Z,76.82
2019-01-23T11:26:04.773Z,82.00
2019-01-23T11:28:33.535Z,86.47
2019-01-23T11:31:21.476Z,78.15
2019-01-23T11:34:09.648Z,86.22
2019-01-23T11:36:51.630Z,92.47
2019-01-23T11:39:41.340Z,82.15
2019-01-23T11:45:13.681Z,81.47
2019-01-23T11:47:55.421Z,80.77
2019-01-23T11:50:37.404Z,90.97
2019-01-23T11:53:25.401Z,79.00
2019-01-23T11:56:08.837Z,82.15
2019-01-23T11:58:56.879Z,83.58
2019-01-23T12:01:39.216Z,87.12
2019-01-23T12:04:27.196Z,91.57
2019-01-23T12:07:08.700Z,90.80
2019-01-23T12:09:57.119Z,90.10
2019-01-23T12:12:38.669Z,102.12
2019-01-23T12:15:26.783Z,91.17
2019-01-23T12:18:08.503Z,88.03
2019-01-23T12:20:56.668Z,90.15
2019-01-23T12:23:38.130Z,89.35
2019-01-23T12:26:26.172Z,94.07
2019-01-23T12:29:08.070Z,90.83
2019-01-23T12:31:56.003Z,107.78
2019-01-23T12:34:37.608Z,100.80
2019-01-23T12:37:25.556Z,92.22
2019-01-23T12:40:12.774Z,98.05
2019-01-23T12:43:01.781Z,108.17
2019-01-23T12:45:42.923Z,119.70
2019-01-23T12:48:30.899Z,105.83
2019-01-23T12:51:12.819Z,110.57
2019-01-23T12:53:54.026Z,112.83
2019-01-23T12:56:22.688Z,134.55
2019-01-23T12:59:10.720Z,111.47
2019-01-23T13:01:58.737Z,105.30
2019-01-23T13:04:46.894Z,118.05
2019-01-23T13:07:33.318Z,102.82
2019-01-23T13:10:32.556Z,119.08
2019-01-23T13:13:14.667Z,106.00
2019-01-23T13:16:02.735Z,103.97
2019-01-23T13:18:44.392Z,112.52
2019-01-23T13:21:32.414Z,108.12
2019-01-23T13:24:20.704Z,108.57
2019-01-23T13:26:49.758Z,117.50
2019-01-23T13:29:37.681Z,110.80
2019-01-23T13:32:25.676Z,109.57
2019-01-23T13:35:08.911Z,130.03
2019-01-23T13:37:56.868Z,137.50
2019-01-23T13:40:46.432Z,131.43
2019-01-23T13:43:34.891Z,109.37
2019-01-23T13:46:04.713Z,123.13
2019-01-23T13:48:52.729Z,119.87
2019-01-23T13:51:34.969Z,111.42
2019-01-23T13:54:23.080Z,105.65
2019-01-23T13:57:05.427Z,111.12
2019-01-23T13:59:53.564Z,119.77
2019-01-23T14:02:37.128Z,130.10
2019-01-23T14:05:25.173Z,113.65
2019-01-23T14:07:53.871Z,117.70
2019-01-23T14:10:41.909Z,121.70
2019-01-23T14:13:30.007Z,95.07
2019-01-23T14:16:12.175Z,101.42
2019-01-23T14:19:00.193Z,105.10
2019-01-23T14:21:42.065Z,107.17
2019-01-23T14:24:30.198Z,101.87
2019-01-23T14:27:11.793Z,145.77
2019-01-23T14:29:59.941Z,117.70
2019-01-23T14:32:41.425Z,127.82
2019-01-23T14:35:29.751Z,114.88
2019-01-23T14:38:11.838Z,134.18
2019-01-23T14:40:40.574Z,177.15
2019-01-23T14:43:28.595Z,130.03
2019-01-23T14:46:09.915Z,125.60
2019-01-23T14:48:57.896Z,117.03
2019-01-23T14:51:39.384Z,116.80
2019-01-23T14:54:27.449Z,121.55
2019-01-23T14:57:09.529Z,118.42
2019-01-23T14:59:57.544Z,134.52
2019-01-23T15:02:42.792Z,132.30
2019-01-23T15:05:25.629Z,118.82
2019-01-23T15:08:13.637Z,136.30
2019-01-23T15:10:57.529Z,128.12
2019-01-23T15:13:45.641Z,118.35
2019-01-23T15:16:33.798Z,137.77
2019-01-23T15:19:16.301Z,154.18
2019-01-23T15:21:58.069Z,140.62
2019-01-23T15:24:46.204Z,136.72
2019-01-23T15:27:27.760Z,142.62
2019-01-23T15:30:36.902Z,138.45
2019-01-23T15:33:18.622Z,151.00
2019-01-23T15:35:47.407Z,139.92
2019-01-23T15:38:35.585Z,173.95
2019-01-23T15:41:17.056Z,138.50
2019-01-23T15:44:05.200Z,138.80
2019-01-23T15:46:46.873Z,130.55
2019-01-23T15:49:15.677Z,134.82
2019-01-23T15:51:57.722Z,132.07
2019-01-23T15:54:45.729Z,122.98
2019-01-23T15:57:28.182Z,127.50
2019-01-23T15:59:56.906Z,125.87
2019-01-23T16:02:44.923Z,122.10
2019-01-23T16:05:33.509Z,119.20
2019-01-23T16:08:14.740Z,152.60
2019-01-23T16:17:09.342Z,113.32
2019-01-23T16:19:57.396Z,111.03
2019-01-23T16:22:38.676Z,134.20
2019-01-23T16:25:28.209Z,122.15
2019-01-23T16:28:10.247Z,129.82
2019-01-23T16:31:18.380Z,122.20
2019-01-23T16:34:05.272Z,114.50
2019-01-23T16:36:53.903Z,118.05
2019-01-23T16:39:35.280Z,142.90
2019-01-23T16:42:23.330Z,118.82
2019-01-23T16:45:13.603Z,118.72
2019-01-23T16:47:54.919Z,114.82
2019-01-23T16:50:36.786Z,115.20
2019-01-23T16:53:24.920Z,113.22
2019-01-23T16:56:06.827Z,107.70
2019-01-23T16:58:55.084Z,118.93
2019-01-23T17:01:23.832Z,112.55
2019-01-23T17:04:11.891Z,104.85
2019-01-23T17:06:59.896Z,105.43
2019-01-23T17:09:47.942Z,130.82
2019-01-23T17:12:29.583Z,131.93
2019-01-23T17:15:17.921Z,121.42
2019-01-23T17:17:59.444Z,137.65
2019-01-23T17:20:47.642Z,133.90
2019-01-23T17:23:28.918Z,134.27
2019-01-23T17:26:01.410Z,135.52
2019-01-23T17:28:49.472Z,141.25
2019-01-23T17:31:37.446Z,143.82
2019-01-23T17:34:18.892Z,143.02
2019-01-23T17:37:06.968Z,138.47
2019-01-23T17:39:48.175Z,129.20
2019-01-23T17:45:34.950Z,133.12
2019-01-23T17:48:22.937Z,122.10
2019-01-23T17:51:04.639Z,122.72
2019-01-23T17:53:52.645Z,122.40
2019-01-23T17:56:34.498Z,117.90
2019-01-23T17:59:22.531Z,119.33
2019-01-23T18:02:04.707Z,118.75
2019-01-23T18:04:52.627Z,124.58
2019-01-23T18:07:33.821Z,116.00
2019-01-23T18:10:22.017Z,128.57
2019-01-23T18:13:03.737Z,123.65
2019-01-23T18:15:51.785Z,117.77
2019-01-23T18:18:33.879Z,96.05
2019-01-23T18:21:21.852Z,118.60
2019-01-23T18:24:04.432Z,125.45
2019-01-23T18:26:52.460Z,124.38
2019-01-23T18:29:34.175Z,132.25
2019-01-23T18:32:22.995Z,125.42
2019-01-23T18:35:09.045Z,124.25
2019-01-23T18:38:16.393Z,132.65
2019-01-23T18:41:17.793Z,140.15
2019-01-23T18:44:20.371Z,132.05
2019-01-23T18:47:06.418Z,119.22
2019-01-23T18:50:13.675Z,130.85
2019-01-23T18:52:54.992Z,127.05
2019-01-23T18:55:43.073Z,116.10
2019-01-23T18:58:24.620Z,121.07
2019-01-23T19:01:12.692Z,129.27
2019-01-23T19:03:54.200Z,133.20
2019-01-23T19:06:42.238Z,118.60
2019-01-23T19:09:30.162Z,124.55
2019-01-23T19:12:18.220Z,131.57
2019-01-23T19:14:59.367Z,108.30
2019-01-23T19:17:47.023Z,117.40
2019-01-23T19:20:35.025Z,120.22
2019-01-23T19:23:23.095Z,132.43
2019-01-23T19:26:04.812Z,138.15
2019-01-23T19:28:52.779Z,130.82
2019-01-23T19:31:34.707Z,127.30
2019-01-23T19:34:22.684Z,118.28
2019-01-23T19:37:03.735Z,112.37
2019-01-23T19:39:51.855Z,133.47
2019-01-23T19:42:33.171Z,121.17
2019-01-23T19:45:21.416Z,130.78
2019-01-23T19:48:03.020Z,135.12
2019-01-23T19:50:50.951Z,126.33
2019-01-23T19:53:39.016Z,102.75
2019-01-23T19:56:20.176Z,126.97
2019-01-23T19:59:08.217Z,106.75
2019-01-23T20:01:50.080Z,134.35
2019-01-23T20:04:38.066Z,124.20
2019-01-23T20:07:06.664Z,127.40
2019-01-23T20:09:54.633Z,124.82
2019-01-23T20:12:42.563Z,114.82
2019-01-23T20:15:51.267Z,113.22
2019-01-23T20:18:39.264Z,115.35
2019-01-23T20:21:20.457Z,110.92
2019-01-23T20:24:08.423Z,127.02
2019-01-23T20:26:49.648Z,108.83
2019-01-23T20:29:37.649Z,106.40
2019-01-23T20:32:18.944Z,109.80
2019-01-23T20:35:07.676Z,96.15
2019-01-23T20:37:48.745Z,123.67
2019-01-23T20:40:36.710Z,100.38
2019-01-23T20:43:18.012Z,119.37
2019-01-23T20:46:06.033Z,112.55
2019-01-23T20:48:48.040Z,107.97
2019-01-23T20:51:29.458Z,110.97
2019-01-23T20:53:58.245Z,138.35
2019-01-23T20:56:46.297Z,113.17
2019-01-23T20:59:27.848Z,124.05
2019-01-23T21:02:15.911Z,124.70
2019-01-23T21:04:57.885Z,126.50
2019-01-23T21:10:40.930Z,141.57
2019-01-23T21:13:28.947Z,145.05
2019-01-23T21:16:10.394Z,136.57
2019-01-23T21:18:58.398Z,138.90
2019-01-23T21:24:34.044Z,143.47
2019-01-23T21:27:15.323Z,127.62
2019-01-23T21:30:03.947Z,125.60
2019-01-23T21:32:45.875Z,143.68
2019-01-23T21:35:33.845Z,113.00
2019-01-23T21:38:15.441Z,142.80
2019-01-23T21:43:57.536Z,125.05
2019-01-23T21:46:45.532Z,135.28
2019-01-23T21:49:27.217Z,125.85
2019-01-23T21:52:08.857Z,145.82
2019-01-23T21:54:56.834Z,135.52
2019-01-23T21:57:38.752Z,133.75
2019-01-23T22:00:47.509Z,133.60
2019-01-23T22:03:29.520Z,121.28
2019-01-23T22:06:17.503Z,137.07
2019-01-23T22:08:59.263Z,132.15
2019-01-23T22:11:47.315Z,128.42
2019-01-23T22:14:28.508Z,137.47
2019-01-23T22:17:16.479Z,138.25
2019-01-23T22:19:58.108Z,136.60
2019-01-23T22:22:46.173Z,142.00
2019-01-23T22:25:27.450Z,139.05
2019-01-23T22:28:15.417Z,136.12
2019-01-23T22:31:03.427Z,139.88
2019-01-23T22:33:45.059Z,126.97
2019-01-23T22:36:33.094Z,128.93
2019-01-23T22:39:14.824Z,125.33
2019-01-23T22:44:56.685Z,130.95
2019-01-23T22:47:44.729Z,111.57
2019-01-23T22:50:26.970Z,138.15
2019-01-23T22:53:14.950Z,120.30
2019-01-23T22:55:56.997Z,129.78
2019-01-23T22:58:44.961Z,139.95
2019-01-23T23:01:26.807Z,123.92
2019-01-23T23:04:14.772Z,134.57
2019-01-23T23:06:56.511Z,133.05
2019-01-23T23:09:44.499Z,121.95
2019-01-23T23:12:26.038Z,142.25
2019-01-23T23:15:14.185Z,130.93
2019-01-23T23:17:56.171Z,127.12
2019-01-23T23:20:44.168Z,116.67
2019-01-23T23:23:26.005Z,119.22
2019-01-23T23:29:07.687Z,122.00
2019-01-23T23:31:55.758Z,105.55
2019-01-23T23:34:37.677Z,140.52
2019-01-23T23:37:25.732Z,118.13
2019-01-23T23:40:09.333Z,117.08
2019-01-23T23:42:38.104Z,121.72
2019-01-23T23:45:26.269Z,108.22
2019-01-23T23:48:08.165Z,119.72
2019-01-23T23:50:56.212Z,121.45
2019-01-23T23:53:24.852Z,120.92
2019-01-23T23:56:12.775Z,108.10
2019-01-23T23:58:54.542Z,114.72
